Time;durP1;ratioP1;P1;durP2;ratioP2;P2;SDS_P1;SDS_P2;PMS_P1;PMS_P2;Temp;Humidity;BMP_temperature;BMP_pressure;BME280_temperature;BME280_humidity;BME280_pressure;Samples;Min_cycle;Max_cycle;Signal;HPM_P1;HPM_P2
2021/05/16 05:01:10;;;;;;;30.98;25.23;;;;;;;12.30;99.50;94095.59;5579161;23;20081;-72
2021/05/16 05:03:36;;;;;;;26.60;23.67;;;;;;;12.33;99.58;94105.59;4908852;29;20031;-72
2021/05/16 05:06:01;;;;;;;27.52;22.98;;;;;;;12.32;98.68;94104.81;4917932;29;20034;-71
2021/05/16 05:08:27;;;;;;;26.67;23.95;;;;;;;12.36;98.59;94102.59;4949769;29;20397;-69
2021/05/16 05:10:53;;;;;;;25.75;23.08;;;;;;;12.49;98.59;94105.94;4917816;29;20023;-71
2021/05/16 05:13:18;;;;;;;25.05;22.35;;;;;;;12.52;98.26;94102.16;4950253;29;20031;-71
2021/05/16 05:15:44;;;;;;;26.42;23.67;;;;;;;12.59;97.44;94101.13;4933731;29;20516;-71
2021/05/16 05:18:09;;;;;;;28.15;25.13;;;;;;;12.73;97.29;94107.09;4917542;29;20094;-71
2021/05/16 05:20:35;;;;;;;24.13;21.58;;;;;;;12.98;96.80;94107.19;4916495;29;20026;-70
2021/05/16 05:23:01;;;;;;;25.60;22.90;;;;;;;13.02;96.63;94119.59;4917750;29;20027;-69
2021/05/16 05:25:29;;;;;;;25.05;22.45;;;;;;;12.93;96.24;94117.44;4950122;29;20031;-69
2021/05/16 05:27:55;;;;;;;27.35;24.55;;;;;;;13.01;96.53;94120.59;4933700;29;20477;-70
2021/05/16 05:30:22;;;;;;;27.05;23.30;;;;;;;13.03;96.30;94121.19;4900372;29;20019;-69
2021/05/16 05:32:47;;;;;;;28.02;24.00;;;;;;;12.89;96.29;94127.44;4950923;29;20040;-71
2021/05/16 05:35:13;;;;;;;26.70;23.95;;;;;;;12.85;96.35;94125.44;4932810;29;20564;-71
2021/05/16 05:37:38;;;;;;;25.40;22.85;;;;;;;13.09;95.71;94122.19;4917335;29;20119;-71
2021/05/16 05:40:04;;;;;;;26.67;23.92;;;;;;;13.16;94.88;94128.94;4933208;28;20066;-69
2021/05/16 05:42:30;;;;;;;30.38;27.38;;;;;;;13.20;94.68;94124.94;4953189;29;20074;-69
2021/05/16 05:44:55;;;;;;;25.88;23.17;;;;;;;13.09;94.19;94127.41;4954403;29;20440;-69
2021/05/16 05:47:21;;;;;;;23.92;21.65;;;;;;;13.05;93.85;94136.56;4953350;29;20035;-71
2021/05/16 05:49:46;;;;;;;25.38;22.77;;;;;;;13.19;94.75;94128.56;4920948;29;20023;-71
2021/05/16 05:52:18;;;;;;;26.63;24.02;;;;;;;13.13;95.59;94139.75;4936011;29;20110;-69
2021/05/16 05:54:45;;;;;;;23.42;19.98;;;;;;;12.95;93.87;94142.22;4953991;29;20035;-69
2021/05/16 05:57:11;;;;;;;20.77;18.73;;;;;;;12.93;94.03;94149.41;4953821;29;20031;-71
2021/05/16 05:59:36;;;;;;;22.90;20.70;;;;;;;13.09;94.90;94150.78;4953529;29;20050;-71
2021/05/16 06:02:03;;;;;;;25.08;22.35;;;;;;;13.20;94.82;94143.13;4936241;29;20051;-68
2021/05/16 06:04:31;;;;;;;27.10;24.15;;;;;;;13.27;96.13;94148.31;4936187;29;20047;-68
2021/05/16 06:06:57;;;;;;;24.65;22.20;;;;;;;13.24;96.35;94156.53;4953918;29;20023;-69
2021/05/16 06:09:22;;;;;;;23.92;21.60;;;;;;;13.32;96.09;94151.09;4952821;29;20031;-68
2021/05/16 06:11:47;;;;;;;20.02;18.17;;;;;;;13.55;94.75;94150.59;4920951;29;20038;-68
2021/05/16 06:14:13;;;;;;;19.02;17.20;;;;;;;13.55;93.78;94146.16;4936324;29;20031;-69
2021/05/16 06:16:38;;;;;;;18.33;16.65;;;;;;;13.94;92.72;94145.13;4920333;29;20023;-68
2021/05/16 06:19:05;;;;;;;20.23;18.15;;;;;;;13.93;92.30;94153.97;4919994;29;20469;-68
2021/05/16 06:21:31;;;;;;;15.77;14.48;;;;;;;13.76;89.50;94150.25;4934599;29;20563;-68
2021/05/16 06:26:28;;;;;;;18.08;16.08;;;;;;;14.32;90.51;94157.28;4918284;29;20560;-68
2021/05/16 06:28:54;;;;;;;16.75;15.20;;;;;;;14.57;88.54;94152.88;4934280;29;20023;-69
2021/05/16 06:31:20;;;;;;;19.10;17.17;;;;;;;14.68;90.91;94150.34;4930320;29;20078;-69
2021/05/16 06:33:45;;;;;;;19.33;17.52;;;;;;;15.12;89.06;94144.06;4920472;29;20023;-68
2021/05/16 06:36:11;;;;;;;16.67;15.18;;;;;;;14.73;85.63;94149.72;4953018;29;20090;-69
2021/05/16 06:38:36;;;;;;;16.67;15.20;;;;;;;14.72;87.46;94148.91;4919638;29;20019;-69
2021/05/16 06:41:02;;;;;;;16.65;15.25;;;;;;;14.36;88.97;94156.66;4952172;29;20038;-68
2021/05/16 06:43:27;;;;;;;18.30;16.48;;;;;;;14.70;89.67;94160.56;4933354;29;20030;-69
2021/05/16 06:45:53;;;;;;;15.93;14.38;;;;;;;14.75;89.48;94163.31;4949878;29;20030;-69
2021/05/16 06:48:18;;;;;;;14.55;13.35;;;;;;;14.66;89.48;94157.59;4952395;29;20031;-69
2021/05/16 06:50:44;;;;;;;15.82;14.20;;;;;;;14.48;91.15;94160.16;4935864;29;20046;-69
2021/05/16 06:53:09;;;;;;;14.75;13.35;;;;;;;14.68;90.22;94160.78;4952113;28;20027;-68
2021/05/16 06:55:35;;;;;;;12.85;11.60;;;;;;;14.64;89.44;94157.00;4934974;29;20606;-68
2021/05/16 06:58:01;;;;;;;11.25;10.25;;;;;;;14.67;87.46;94153.94;4920300;29;20035;-68
2021/05/16 07:00:26;;;;;;;11.82;10.25;;;;;;;14.68;85.54;94142.53;4951250;29;20027;-71
2021/05/16 07:02:52;;;;;;;11.75;10.32;;;;;;;15.00;86.75;94143.19;4934472;29;20534;-71
2021/05/16 07:05:17;;;;;;;12.32;10.25;;;;;;;14.66;84.60;94136.75;4933880;29;20070;-71
2021/05/16 07:07:43;;;;;;;11.25;10.15;;;;;;;14.72;85.66;94138.47;4934459;29;20051;-71
2021/05/16 07:10:09;;;;;;;10.57;9.50;;;;;;;15.09;85.96;94141.09;4934139;29;20023;-71
2021/05/16 07:12:34;;;;;;;10.07;9.13;;;;;;;14.96;87.43;94110.72;4931259;29;20035;-71
2021/05/16 07:15:00;;;;;;;8.90;8.13;;;;;;;15.38;84.25;94134.34;4933673;29;20034;-71
2021/05/16 07:17:25;;;;;;;9.65;8.75;;;;;;;15.14;84.49;94136.81;4917708;29;20031;-71
2021/05/16 07:19:51;;;;;;;9.35;8.60;;;;;;;15.19;85.98;94139.56;4951130;29;20027;-72
2021/05/16 07:22:16;;;;;;;10.32;8.77;;;;;;;15.15;85.72;94135.81;4915653;29;20539;-73
2021/05/16 07:24:42;;;;;;;9.48;8.40;;;;;;;15.17;86.66;94133.78;4945857;29;20457;-73
2021/05/16 07:27:08;;;;;;;8.90;8.05;;;;;;;15.47;86.60;94128.59;4930560;29;20090;-72
2021/05/16 07:29:33;;;;;;;8.98;8.18;;;;;;;15.92;83.42;94136.03;4927793;29;20113;-72
2021/05/16 07:31:59;;;;;;;9.43;7.55;;;;;;;16.22;81.75;94134.16;4946840;29;20094;-72
2021/05/16 07:34:24;;;;;;;12.23;8.32;;;;;;;16.06;83.41;94132.97;4896180;29;20035;-72
2021/05/16 07:36:50;;;;;;;10.15;8.30;;;;;;;16.27;81.22;94135.09;4929096;29;20034;-73
2021/05/16 07:39:16;;;;;;;9.43;6.50;;;;;;;16.14;76.46;94137.91;4917373;29;20547;-72
2021/05/16 07:41:41;;;;;;;9.27;7.10;;;;;;;16.10;78.67;94130.72;4916794;29;20035;-73
2021/05/16 07:44:08;;;;;;;7.95;7.25;;;;;;;16.04;78.42;94129.81;4900887;29;20035;-72
2021/05/16 07:46:34;;;;;;;8.63;7.82;;;;;;;16.74;79.99;94135.09;4950431;29;20031;-73
2021/05/16 07:48:59;;;;;;;7.25;6.65;;;;;;;16.72;78.06;94130.13;4933545;29;20031;-73
2021/05/16 07:51:25;;;;;;;9.20;6.60;;;;;;;16.56;79.90;94132.63;4932139;29;20031;-73
2021/05/16 07:53:50;;;;;;;6.82;6.15;;;;;;;16.82;80.11;94138.16;4951005;29;20082;-73
2021/05/16 07:56:15;;;;;;;7.22;6.45;;;;;;;16.35;76.90;94137.34;4933058;29;20024;-74
2021/05/16 07:58:41;;;;;;;6.97;6.32;;;;;;;16.60;78.45;94133.78;4933578;29;20038;-74
2021/05/16 08:01:06;;;;;;;8.75;7.22;;;;;;;16.96;77.54;94136.09;4949272;29;20082;-73
2021/05/16 08:03:32;;;;;;;8.73;7.57;;;;;;;17.08;76.15;94136.88;4933214;29;20031;-75
2021/05/16 08:05:58;;;;;;;8.85;7.95;;;;;;;16.57;77.83;94145.44;4932887;29;20031;-74
2021/05/16 08:08:23;;;;;;;9.10;7.45;;;;;;;16.79;78.80;94143.09;4932776;29;20039;-74
2021/05/16 08:10:49;;;;;;;9.18;8.32;;;;;;;17.03;73.32;94134.16;4931633;29;20563;-74
2021/05/16 08:13:16;;;;;;;8.57;7.78;;;;;;;17.22;75.57;94148.69;4915631;29;20438;-73
2021/05/16 08:15:41;;;;;;;8.63;6.00;;;;;;;17.73;74.03;94144.44;4950432;29;20195;-74
2021/05/16 08:18:08;;;;;;;9.65;7.25;;;;;;;17.57;76.84;94153.06;4932383;29;20031;-76
2021/05/16 08:20:33;;;;;;;7.55;6.65;;;;;;;17.66;75.69;94152.44;4933007;29;20030;-74
2021/05/16 08:22:59;;;;;;;10.98;6.18;;;;;;;17.84;75.48;94154.91;4916491;29;20027;-75
2021/05/16 08:25:25;;;;;;;6.72;5.90;;;;;;;18.04;73.79;94148.41;4949904;29;20031;-74
2021/05/16 08:27:51;;;;;;;5.50;4.57;;;;;;;18.60;73.69;94143.06;4932641;29;20035;-74
2021/05/16 08:30:17;;;;;;;8.82;5.45;;;;;;;18.35;74.16;94143.44;4916825;29;20774;-76
2021/05/16 08:32:43;;;;;;;6.57;4.72;;;;;;;17.98;74.32;94125.78;4916901;29;20016;-77
2021/05/16 08:35:09;;;;;;;7.75;4.97;;;;;;;17.93;72.30;94144.81;4914200;29;20086;-75
2021/05/16 08:37:35;;;;;;;5.07;4.63;;;;;;;17.34;73.60;94141.59;4917089;29;20473;-75
2021/05/16 08:40:00;;;;;;;5.93;3.95;;;;;;;18.20;68.98;94140.59;4916055;29;20042;-74
2021/05/16 08:42:26;;;;;;;5.38;4.88;;;;;;;17.88;71.70;94145.50;4949641;29;20032;-75
2021/05/16 08:44:52;;;;;;;5.10;4.70;;;;;;;18.27;72.95;94145.66;4900515;29;20043;-72
2021/05/16 08:47:18;;;;;;;6.38;5.18;;;;;;;18.35;73.35;94147.88;4916475;29;20035;-72
2021/05/16 08:49:43;;;;;;;6.93;4.93;;;;;;;18.57;71.45;94148.78;4916671;29;20044;-72
2021/05/16 08:52:09;;;;;;;4.47;3.88;;;;;;;18.97;68.35;94145.16;4899907;29;20026;-70
2021/05/16 08:54:34;;;;;;;4.03;3.45;;;;;;;18.59;69.80;94148.56;4932923;29;20473;-70
2021/05/16 08:57:00;;;;;;;4.00;3.42;;;;;;;18.41;67.57;94141.69;4931294;29;20050;-72
2021/05/16 08:59:26;;;;;;;4.95;2.97;;;;;;;18.91;67.93;94154.81;4916680;29;20042;-72
2021/05/16 09:01:58;;;;;;;4.45;2.85;;;;;;;18.88;70.00;94153.44;4915307;29;20054;-73
2021/05/16 09:06:58;;;;;;;5.20;2.95;;;;;;;19.28;66.90;94147.13;4931619;29;20043;-70
2021/05/16 09:09:36;;;;;;;4.43;2.75;;;;;;;18.98;67.60;94152.78;4931815;29;20038;-71
2021/05/16 09:12:03;;;;;;;4.78;3.25;;;;;;;19.41;66.03;94144.97;4913803;29;20453;-70
2021/05/16 09:14:42;;;;;;;4.20;2.75;;;;;;;19.63;65.55;94137.06;4896929;29;20512;-70
2021/05/16 09:17:26;;;;;;;4.60;2.35;;;;;;;18.58;65.07;94150.38;4912353;29;20031;-70
2021/05/16 09:19:54;;;;;;;2.15;1.95;;;;;;;18.92;67.11;94153.75;4897066;29;20027;-70
2021/05/16 09:22:41;;;;;;;2.50;2.08;;;;;;;19.32;64.50;94137.75;4881313;29;20579;-71
2021/05/16 09:25:18;;;;;;;2.53;1.70;;;;;;;19.69;62.14;94133.47;4930050;29;20023;-72
2021/05/16 09:27:55;;;;;;;4.05;2.13;;;;;;;20.25;61.08;94137.44;4897289;29;20105;-72
2021/05/16 09:30:20;;;;;;;4.93;2.83;;;;;;;20.75;62.99;94137.03;4912956;29;20046;-72
2021/05/16 09:32:53;;;;;;;4.15;2.13;;;;;;;20.67;59.75;94131.47;4929924;29;20028;-72
2021/05/16 09:35:41;;;;;;;5.20;2.33;;;;;;;19.79;61.05;94130.13;4912744;29;20032;-72
2021/05/16 09:38:08;;;;;;;2.72;2.10;;;;;;;20.11;63.30;94117.84;4898054;29;20694;-73
2021/05/16 09:40:42;;;;;;;3.03;2.10;;;;;;;19.59;62.22;94117.59;4912556;29;20031;-72
2021/05/16 09:43:37;;;;;;;2.58;2.38;;;;;;;20.09;64.22;94114.66;4897413;29;20067;-71
2021/05/16 09:46:06;;;;;;;2.90;2.13;;;;;;;20.25;63.05;94108.50;4896883;29;20047;-70
2021/05/16 09:48:33;;;;;;;3.20;2.20;;;;;;;20.78;63.45;94104.13;4937328;29;20027;-70
2021/05/16 09:51:18;;;;;;;2.90;2.20;;;;;;;20.15;62.25;94105.78;4930392;29;20031;-72
2021/05/16 09:53:55;;;;;;;4.68;2.10;;;;;;;19.76;65.34;94096.47;4920362;29;20082;-72
2021/05/16 09:56:27;;;;;;;2.97;2.13;;;;;;;19.17;64.88;94103.44;4944895;29;20054;-71
2021/05/16 09:59:08;;;;;;;5.38;2.30;;;;;;;19.30;65.94;94082.03;4948880;29;20027;-71
2021/05/16 10:01:34;;;;;;;3.00;2.05;;;;;;;19.14;61.84;94085.50;4916396;29;20053;-71
2021/05/16 10:04:00;;;;;;;3.03;2.70;;;;;;;19.36;65.51;94086.31;4914417;29;20039;-72
2021/05/16 10:06:27;;;;;;;2.75;2.33;;;;;;;19.29;63.64;94083.09;4913788;29;20488;-72
2021/05/16 10:08:53;;;;;;;3.10;2.30;;;;;;;19.65;63.96;94081.66;4914694;29;20110;-71
2021/05/16 10:11:20;;;;;;;7.15;2.60;;;;;;;19.62;60.17;94074.28;4914779;29;20023;-71
2021/05/16 10:13:59;;;;;;;2.60;2.40;;;;;;;20.35;62.83;94087.56;4930220;29;20621;-72
2021/05/16 10:16:25;;;;;;;6.43;2.78;;;;;;;19.80;65.53;94079.97;4932420;29;20028;-71
2021/05/16 10:18:51;;;;;;;3.40;2.78;;;;;;;19.32;62.12;94069.47;4914629;29;20457;-71
2021/05/16 10:21:17;;;;;;;3.00;2.55;;;;;;;20.61;64.86;94069.31;4914287;29;20485;-72
2021/05/16 10:23:42;;;;;;;4.60;2.28;;;;;;;19.72;60.78;94063.84;4929760;29;20038;-71
2021/05/16 10:26:18;;;;;;;5.47;2.22;;;;;;;20.43;60.50;94060.78;4930197;29;20086;-72
2021/05/16 10:29:00;;;;;;;6.10;2.58;;;;;;;21.11;60.77;94069.59;4932852;29;20023;-71
2021/05/16 10:31:48;;;;;;;3.97;1.95;;;;;;;20.19;57.46;94064.00;4933617;29;20030;-72
2021/05/16 10:34:32;;;;;;;4.38;2.08;;;;;;;21.32;58.52;94067.84;4917569;29;20493;-72
2021/05/16 10:36:59;;;;;;;5.13;2.53;;;;;;;19.58;58.43;94060.03;4933302;29;20027;-71
2021/05/16 10:39:43;;;;;;;5.07;2.20;;;;;;;20.24;60.69;94058.75;4916972;29;20050;-71
2021/05/16 10:42:18;;;;;;;5.68;2.17;;;;;;;21.18;60.19;94050.91;4949158;29;20050;-71
2021/05/16 10:45:05;;;;;;;3.53;2.15;;;;;;;20.63;59.28;94051.41;4948377;29;20497;-71
2021/05/16 10:47:43;;;;;;;4.63;1.98;;;;;;;20.44;60.76;94051.03;4930564;29;20592;-71
2021/05/16 10:50:09;;;;;;;3.70;2.00;;;;;;;19.81;61.50;94044.75;4950450;29;20023;-71
2021/05/16 10:52:35;;;;;;;4.15;2.10;;;;;;;21.24;59.77;94039.34;4933142;29;20102;-71
2021/05/16 10:55:00;;;;;;;3.10;2.00;;;;;;;20.82;60.79;94039.41;4932694;29;20031;-72
2021/05/16 10:57:39;;;;;;;3.92;2.03;;;;;;;20.20;62.32;94028.75;4932316;29;20031;-72
2021/05/16 11:00:20;;;;;;;2.45;1.98;;;;;;;21.29;62.48;94031.44;4926483;29;20467;-70
2021/05/16 11:03:07;;;;;;;4.60;2.60;;;;;;;20.57;61.80;94028.75;4941714;29;20087;-71
2021/05/16 11:05:52;;;;;;;3.47;2.08;;;;;;;20.32;57.67;94040.72;4930898;29;20044;-71
2021/05/16 11:08:18;;;;;;;2.30;1.80;;;;;;;20.07;59.33;94037.84;4931477;29;20028;-71
2021/05/16 11:10:47;;;;;;;3.25;2.10;;;;;;;20.68;58.97;94046.97;4949324;29;20038;-71
2021/05/16 11:13:18;;;;;;;3.25;2.20;;;;;;;20.80;56.84;94050.22;4950307;29;20035;-70
2021/05/16 11:16:04;;;;;;;2.78;2.10;;;;;;;21.16;58.25;94056.44;4901223;29;20027;-69
2021/05/16 11:18:30;;;;;;;1.88;1.60;;;;;;;20.81;58.61;94058.88;4929803;29;20453;-72
2021/05/16 11:20:56;;;;;;;2.40;2.20;;;;;;;20.05;61.96;94063.63;4912587;29;20066;-69
2021/05/16 11:23:29;;;;;;;3.63;2.08;;;;;;;19.42;62.89;94064.34;4915505;29;20035;-72
2021/05/16 11:25:55;;;;;;;3.85;2.17;;;;;;;19.11;63.38;94073.66;4916591;29;20114;-71
2021/05/16 11:28:22;;;;;;;2.30;2.08;;;;;;;19.20;62.69;94081.94;4948998;29;20479;-71
2021/05/16 11:30:49;;;;;;;3.58;1.88;;;;;;;18.97;65.76;94097.91;4885500;29;20122;-71
2021/05/16 11:33:28;;;;;;;24.38;2.97;;;;;;;18.34;69.30;94152.34;4897601;29;20515;-71
2021/05/16 11:35:53;;;;;;;9.50;1.70;;;;;;;16.90;76.01;94160.56;4906766;29;20787;-69
2021/05/16 11:38:25;;;;;;;3.83;1.63;;;;;;;15.98;79.24;94175.13;4916319;29;20090;-69
2021/05/16 11:40:51;;;;;;;4.00;1.55;;;;;;;15.27;79.80;94186.25;4930453;29;20019;-71
2021/05/16 11:43:16;;;;;;;3.85;1.38;;;;;;;14.75;81.94;94205.81;4912324;29;20651;-70
2021/05/16 11:45:42;;;;;;;3.75;1.85;;;;;;;14.35;83.61;94212.38;4912868;29;20059;-71
2021/05/16 11:48:31;;;;;;;11.20;2.97;;;;;;;13.87;87.15;94225.06;4913477;29;20597;-72
2021/05/16 11:51:04;;;;;;;6.68;3.20;;;;;;;13.83;88.01;94231.72;4921450;29;20034;-71
2021/05/16 11:53:30;;;;;;;8.43;2.60;;;;;;;13.64;88.03;94227.41;4932012;29;20086;-72
2021/05/16 11:56:00;;;;;;;15.60;3.47;;;;;;;13.55;88.01;94231.25;4916617;29;20397;-71
2021/05/16 11:58:26;;;;;;;;;;;;;;;13.64;88.62;94220.41;4904871;29;20039;-71
2021/05/16 12:00:51;;;;;;;4.38;3.97;;;;;;;13.53;88.27;94218.44;4924315;29;20005;-71
2021/05/16 12:03:17;;;;;;;5.93;5.40;;;;;;;12.96;89.90;94211.41;4944097;29;20078;-71
2021/05/16 12:05:44;;;;;;;21.77;5.05;;;;;;;12.74;90.00;94209.22;4947631;29;20644;-71
2021/05/16 12:08:22;;;;;;;4.60;3.40;;;;;;;12.87;90.82;94202.22;4949240;29;20027;-71
2021/05/16 12:11:12;;;;;;;4.35;3.53;;;;;;;13.06;92.06;94188.38;4931156;29;20042;-70
2021/05/16 12:13:38;;;;;;;;;;;;;;;12.99;91.98;94185.00;4914585;29;20134;-70
2021/05/16 12:16:22;;;;;;;3.97;3.67;;;;;;;12.94;92.41;94168.41;4921634;29;20075;-70
2021/05/16 12:18:53;;;;;;;4.75;3.05;;;;;;;13.13;92.09;94160.56;4930967;29;20031;-68
2021/05/16 12:21:18;;;;;;;3.75;2.90;;;;;;;13.25;91.23;94152.13;4931293;29;20015;-68
2021/05/16 12:23:51;;;;;;;5.07;3.00;;;;;;;13.39;89.29;94151.84;4896286;29;20074;-69
2021/05/16 12:26:16;;;;;;;55.53;3.92;;;;;;;13.90;87.70;94162.16;4912366;29;20549;-70
2021/05/16 12:28:42;;;;;;;2.78;2.38;;;;;;;14.43;86.43;94157.41;4920867;29;20040;-72
2021/05/16 12:31:08;;;;;;;2.47;2.28;;;;;;;15.07;86.11;94158.78;4912507;29;20055;-72
2021/05/16 12:33:37;;;;;;;2.80;1.20;;;;;;;15.43;76.55;94144.91;4931005;29;20604;-71
2021/05/16 12:36:03;;;;;;;1.48;1.38;;;;;;;15.46;80.51;94160.13;4893426;29;20047;-71
2021/05/16 12:38:39;;;;;;;1.58;1.45;;;;;;;16.07;77.76;94155.50;4935533;29;20019;-69
2021/05/16 12:41:19;;;;;;;2.65;1.50;;;;;;;16.25;80.25;94158.00;4906209;29;20118;-71
2021/05/16 12:44:02;;;;;;;;;;;;;;;16.13;79.49;94170.25;4903076;29;20046;-71
2021/05/16 12:46:47;;;;;;;3.08;2.45;;;;;;;16.03;79.53;94163.97;4940729;29;19918;-71
2021/05/16 12:49:14;;;;;;;3.53;2.33;;;;;;;16.10;81.65;94170.72;4913946;29;20493;-71
2021/05/16 12:51:39;;;;;;;2.47;2.28;;;;;;;16.04;80.50;94173.41;4930186;29;20039;-70
2021/05/16 12:54:19;;;;;;;1.50;1.23;;;;;;;15.78;79.75;94177.19;4931102;29;20073;-71
2021/05/16 12:56:47;;;;;;;1.90;1.63;;;;;;;15.55;83.83;94164.84;4925980;29;20548;-71
2021/05/16 12:59:24;;;;;;;1.77;1.67;;;;;;;15.38;85.42;94165.66;4897690;29;20027;-72
2021/05/16 13:01:50;;;;;;;2.60;2.38;;;;;;;15.35;84.93;94169.47;4914934;29;20081;-72
2021/05/16 13:04:19;;;;;;;7.43;6.50;;;;;;;15.31;79.51;94168.34;4930073;29;20066;-70
2021/05/16 13:06:45;;;;;;;8.43;6.05;;;;;;;15.43;82.87;94163.97;4930104;29;20525;-70
2021/05/16 13:09:15;;;;;;;7.85;7.13;;;;;;;14.99;84.95;94172.91;4915836;29;20028;-70
2021/05/16 13:11:45;;;;;;;5.80;5.30;;;;;;;15.10;84.88;94172.19;4915207;29;20039;-69
2021/05/16 13:14:10;;;;;;;5.13;4.18;;;;;;;14.92;86.28;94176.59;4914886;29;20119;-70
2021/05/16 13:16:39;;;;;;;4.45;4.05;;;;;;;14.91;85.71;94172.38;4914711;29;20032;-71
2021/05/16 13:19:04;;;;;;;2.80;2.38;;;;;;;14.57;86.18;94160.69;4915062;29;20046;-74
2021/05/16 13:21:33;;;;;;;5.60;1.58;;;;;;;14.74;84.36;94159.09;4886255;29;20502;-73
2021/05/16 13:24:00;;;;;;;2.45;1.80;;;;;;;14.79;84.86;94154.06;4910972;29;20038;-73
2021/05/16 13:26:50;;;;;;;2.30;2.10;;;;;;;14.95;84.56;94160.50;4895529;29;20138;-73
2021/05/16 13:29:16;;;;;;;2.55;1.80;;;;;;;15.56;84.35;94158.63;4897669;29;20110;-71
2021/05/16 13:31:42;;;;;;;1.90;1.80;;;;;;;15.56;83.35;94145.56;4895872;29;20441;-72
2021/05/16 13:34:22;;;;;;;1.92;1.83;;;;;;;15.63;84.21;94150.69;4896349;29;20055;-72
2021/05/16 13:36:50;;;;;;;1.70;1.60;;;;;;;15.63;82.25;94148.88;4896362;29;20036;-72
2021/05/16 13:39:16;;;;;;;2.25;1.90;;;;;;;15.77;85.18;94157.31;4897270;29;20506;-75
2021/05/16 13:41:42;;;;;;;2.22;2.00;;;;;;;15.58;87.34;94163.59;4895576;29;20031;-75
2021/05/16 13:44:07;;;;;;;2.97;2.08;;;;;;;15.06;87.75;94185.84;4896333;29;20038;-75
2021/05/16 13:46:34;;;;;;;3.15;2.03;;;;;;;15.11;90.91;94186.03;4928299;29;20040;-76
2021/05/16 13:48:59;;;;;;;3.22;3.03;;;;;;;15.09;87.22;94182.84;4880940;29;20387;-73
2021/05/16 13:51:25;;;;;;;8.75;6.68;;;;;;;15.21;87.62;94179.28;4895955;29;20032;-72
2021/05/16 13:53:50;;;;;;;6.03;4.78;;;;;;;15.28;85.85;94181.81;4911478;29;20490;-74
2021/05/16 13:56:16;;;;;;;6.00;4.63;;;;;;;15.36;86.36;94180.72;4911939;29;20038;-72
2021/05/16 13:58:41;;;;;;;3.60;3.30;;;;;;;15.06;82.81;94172.81;4911346;29;20032;-72
2021/05/16 14:01:07;;;;;;;4.15;3.42;;;;;;;15.47;85.18;94182.59;4880317;29;20043;-72
2021/05/16 14:03:32;;;;;;;4.60;4.20;;;;;;;15.44;88.51;94185.66;4932086;29;20420;-73
2021/05/16 14:05:58;;;;;;;10.23;9.32;;;;;;;15.32;89.10;94183.75;4932095;29;20027;-75
2021/05/16 14:08:23;;;;;;;11.85;9.93;;;;;;;15.39;89.21;94190.72;4915024;29;20031;-73
2021/05/16 14:10:49;;;;;;;12.00;10.80;;;;;;;15.69;88.91;94179.34;4914804;29;20024;-73
2021/05/16 14:13:14;;;;;;;10.85;8.18;;;;;;;15.63;88.88;94176.81;4932329;29;20027;-74
2021/05/16 14:15:40;;;;;;;5.82;3.80;;;;;;;15.56;89.35;94168.25;4929445;29;20031;-74
2021/05/16 14:18:06;;;;;;;3.00;2.80;;;;;;;15.55;88.88;94162.22;4918647;29;20114;-74
2021/05/16 14:20:32;;;;;;;8.93;7.10;;;;;;;15.64;88.49;94162.72;4950763;29;20062;-74
2021/05/16 14:22:57;;;;;;;4.20;3.80;;;;;;;16.10;87.93;94177.75;4918224;29;20035;-73
2021/05/16 14:25:23;;;;;;;2.70;2.50;;;;;;;16.49;86.31;94177.16;4950643;29;20030;-73
2021/05/16 14:27:49;;;;;;;37.03;4.97;;;;;;;15.46;87.87;94181.78;4950982;29;20039;-73
2021/05/16 14:30:14;;;;;;;4.90;4.50;;;;;;;15.36;89.38;94183.31;4951502;29;20058;-73
2021/05/16 14:32:40;;;;;;;4.70;4.30;;;;;;;15.21;89.35;94176.69;4933537;29;20043;-72
2021/05/16 14:35:06;;;;;;;4.55;3.30;;;;;;;15.32;86.50;94162.88;4950865;29;20031;-72
2021/05/16 14:37:31;;;;;;;3.13;2.83;;;;;;;15.65;85.36;94151.25;4951099;29;20505;-72
2021/05/16 14:39:59;;;;;;;2.95;2.35;;;;;;;15.42;84.03;94153.72;4933667;29;20047;-73
2021/05/16 14:42:24;;;;;;;6.68;3.78;;;;;;;15.68;81.47;94145.59;4933458;29;20055;-72
2021/05/16 14:44:50;;;;;;;2.75;2.38;;;;;;;15.72;80.29;94142.34;4949204;29;20023;-72
2021/05/16 14:47:15;;;;;;;2.60;2.40;;;;;;;15.67;82.12;94136.97;4950517;29;20050;-72
2021/05/16 14:49:42;;;;;;;1.92;1.83;;;;;;;15.87;80.90;94138.50;4950771;29;20035;-72
2021/05/16 14:52:07;;;;;;;2.40;2.20;;;;;;;15.77;83.32;94139.03;4950307;28;20544;-72
2021/05/16 14:54:33;;;;;;;2.13;1.90;;;;;;;15.98;81.86;94137.75;4950136;29;20019;-71
2021/05/16 14:56:58;;;;;;;2.55;2.30;;;;;;;16.26;82.66;94137.91;4902915;29;20628;-71
2021/05/16 14:59:23;;;;;;;3.38;3.17;;;;;;;16.27;81.85;94135.09;4945132;28;20034;-71
2021/05/16 15:01:49;;;;;;;6.32;2.70;;;;;;;16.05;81.06;94139.25;4951449;28;20090;-71
2021/05/16 15:04:15;;;;;;;2.40;2.15;;;;;;;15.96;82.02;94143.19;4919548;28;20035;-71
2021/05/16 15:06:41;;;;;;;3.10;2.40;;;;;;;16.22;81.75;94153.22;4920223;28;20023;-71
2021/05/16 15:09:06;;;;;;;1.92;1.83;;;;;;;16.08;79.48;94151.88;4951840;28;20037;-71
2021/05/16 15:11:32;;;;;;;3.13;2.83;;;;;;;16.14;80.18;94153.56;4951685;28;20022;-70
2021/05/16 15:13:57;;;;;;;4.32;3.97;;;;;;;16.14;80.33;94156.19;4951416;28;20035;-71
2021/05/16 15:16:23;;;;;;;2.22;2.03;;;;;;;15.69;77.99;94141.97;4968983;28;20026;-71
2021/05/16 15:18:48;;;;;;;2.05;1.80;;;;;;;15.82;76.27;94141.78;4935001;28;20039;-70
2021/05/16 15:21:14;;;;;;;1.85;1.40;;;;;;;15.70;76.76;94135.75;4935103;28;20030;-71
2021/05/16 15:23:41;;;;;;;2.00;1.80;;;;;;;15.87;77.56;94143.72;4918384;29;20033;-69
2021/05/16 15:26:06;;;;;;;1.85;1.75;;;;;;;16.38;80.92;94153.59;4932248;29;20033;-70
2021/05/16 15:28:32;;;;;;;2.10;1.75;;;;;;;16.16;79.48;94143.69;4901098;29;20023;-70
2021/05/16 15:30:58;;;;;;;2.97;1.98;;;;;;;16.35;80.34;94137.34;4916652;29;20035;-71
2021/05/16 15:33:23;;;;;;;2.08;1.88;;;;;;;16.28;80.49;94141.06;4915773;29;20059;-71
2021/05/16 15:35:49;;;;;;;2.28;2.08;;;;;;;16.08;80.07;94141.41;4949912;29;20027;-70
2021/05/16 15:38:14;;;;;;;2.78;2.58;;;;;;;15.87;80.50;94141.09;4931918;29;20034;-70
2021/05/16 15:40:40;;;;;;;2.67;2.47;;;;;;;15.76;85.07;94148.69;4932272;29;20094;-70
2021/05/16 15:43:06;;;;;;;3.00;2.80;;;;;;;15.70;84.65;94159.25;4931863;29;20032;-70
2021/05/16 15:45:31;;;;;;;2.78;2.58;;;;;;;15.61;84.25;94177.00;4900469;29;20042;-70
2021/05/16 15:47:58;;;;;;;3.20;2.40;;;;;;;15.35;85.91;94187.75;4949709;29;20374;-70
2021/05/16 15:50:24;;;;;;;3.58;2.70;;;;;;;15.24;87.41;94196.31;4947846;28;20034;-70
2021/05/16 15:52:52;;;;;;;3.22;2.92;;;;;;;15.11;87.91;94205.06;4923253;29;20490;-71
2021/05/16 15:55:18;;;;;;;3.65;3.35;;;;;;;14.98;89.51;94213.03;4928738;29;20027;-69
2021/05/16 15:57:43;;;;;;;4.35;3.45;;;;;;;14.93;90.56;94210.25;4932089;29;20416;-72
2021/05/16 16:00:09;;;;;;;3.55;3.35;;;;;;;14.89;91.34;94203.09;4930149;29;20034;-72
2021/05/16 16:02:35;;;;;;;27.88;5.57;;;;;;;14.85;90.79;94186.28;4929321;29;20054;-72
2021/05/16 16:05:00;;;;;;;7.28;6.68;;;;;;;14.96;91.23;94183.75;4931732;29;20032;-75
2021/05/16 16:07:26;;;;;;;11.27;9.15;;;;;;;15.10;89.66;94172.19;4900273;29;20429;-72
2021/05/16 16:09:52;;;;;;;17.33;14.32;;;;;;;15.08;89.84;94171.59;4931786;29;20035;-72
2021/05/16 16:12:18;;;;;;;14.88;13.50;;;;;;;15.32;88.73;94165.50;4931176;29;20050;-71
2021/05/16 16:14:44;;;;;;;12.23;11.05;;;;;;;15.32;88.99;94168.09;4932455;29;20460;-72
2021/05/16 16:17:09;;;;;;;9.07;8.27;;;;;;;15.21;89.00;94166.25;4915978;29;20169;-72
2021/05/16 16:19:35;;;;;;;16.80;9.65;;;;;;;15.23;88.91;94164.19;4916535;29;20038;-71
2021/05/16 16:22:01;;;;;;;14.45;7.22;;;;;;;15.09;89.67;94160.13;4915012;29;20109;-71
2021/05/16 16:24:26;;;;;;;10.23;8.35;;;;;;;15.22;90.11;94170.44;4931656;28;20378;-72
2021/05/16 16:26:52;;;;;;;9.48;8.60;;;;;;;15.18;90.50;94156.25;4915524;29;20343;-71
2021/05/16 16:29:18;;;;;;;8.23;7.47;;;;;;;15.23;91.23;94155.56;4931491;29;20401;-71
2021/05/16 16:31:46;;;;;;;9.00;8.20;;;;;;;15.06;91.24;94154.56;4915922;29;20038;-71
2021/05/16 16:34:13;;;;;;;8.13;7.45;;;;;;;14.93;92.50;94178.19;4915808;29;20133;-73
2021/05/16 16:36:38;;;;;;;7.15;6.65;;;;;;;14.79;92.47;94169.69;4931776;29;20566;-71
2021/05/16 16:39:05;;;;;;;5.82;5.28;;;;;;;14.86;92.57;94175.66;4915680;29;20030;-71